Citation — WDE7253 — position and weather

sailwx.info

Track history (hours):
 
Tides and Currents Weather Stations Pressure Air Temp Water Temp Dewpoint Dewpoint Depression Visibility Wind Speed Wind Dir Waves Ship Positions

Citation

Owner: Turn Services, LLC, New Orleans, LA. More information available from US FCC via Universal Licensing System and Coast Guard Vessel Documentation Center.

Last reported at 2017-Oct-18 07:46 UTC. Time now 2017-Oct-18 11:19 UTC.
Position N 29°34' W 090°28'.

Length 37 m.

Type: Other ship. MMSI: 367390960.

Date/timePositionNaut miles runAvg speedWind from/ knotsBaromVisibWave heightAir tempDewpointWater temp
2017-Oct-18 07:46N 29°34' W 090°28'1 4.6
2017-Oct-18 07:30N 29°34' W 090°30'2 4.5
2017-Oct-18 07:00N 29°34' W 090°32'2 4.4
2017-Oct-18 06:29N 29°34' W 090°35'2 4.0
2017-Oct-18 06:00N 29°35' W 090°37'2 4.5
2017-Oct-18 05:31N 29°36' W 090°39'2 3.1
2017-Oct-18 05:00N 29°36' W 090°41'2 3.1
2017-Oct-18 04:30N 29°36' W 090°43'2 4.0
2017-Oct-18 04:00N 29°34' W 090°43'2 3.8
2017-Oct-18 03:31N 29°34' W 090°45'2 3.1
2017-Oct-18 03:01N 29°32' W 090°46'3 5.2
2017-Oct-18 02:30N 29°32' W 090°49'3 5.3
2017-Oct-18 01:55N 29°32' W 090°52'2 5.4
2017-Oct-18 01:30N 29°33' W 090°55'4 5.2
2017-Oct-18 00:46N 29°36' W 090°58'  
2017-Oct-15 10:24N 29°32' W 090°50'2 6.1
2017-Oct-15 10:00N 29°32' W 090°48'2 5.0
2017-Oct-15 09:30N 29°33' W 090°45'2 4.7
2017-Oct-15 09:00N 29°35' W 090°43'2 4.2
2017-Oct-15 08:30N 29°37' W 090°42'1 1.5
2017-Oct-15 08:00N 29°37' W 090°41'0 0.4
2017-Oct-15 07:30N 29°36' W 090°41'3 5.1
2017-Oct-15 07:01N 29°35' W 090°39'3 5.0
2017-Oct-15 06:30N 29°35' W 090°36'2 4.7
2017-Oct-15 06:00N 29°34' W 090°33'3 5.2
2017-Oct-15 05:31N 29°34' W 090°30'3 5.2
2017-Oct-15 05:00N 29°33' W 090°27'3 0.1
2017-Oct-13 12:54N 29°34' W 090°23'2 4.6
2017-Oct-13 12:26N 29°33' W 090°26'2 5.3
2017-Oct-13 12:00N 29°34' W 090°28'2 4.9
2017-Oct-13 11:30N 29°34' W 090°31'2 4.8
2017-Oct-13 10:59N 29°34' W 090°34'2 4.6
2017-Oct-13 10:30N 29°35' W 090°37'1 2.6
2017-Oct-13 10:00N 29°35' W 090°38'0 0.0
2017-Oct-13 09:30N 29°35' W 090°38'0 0.1
2017-Oct-13 09:00N 29°35' W 090°38'2 3.9
2017-Oct-13 08:30N 29°36' W 090°40'2 4.2
2017-Oct-13 08:00N 29°37' W 090°42'2 3.7
2017-Oct-13 07:30N 29°35' W 090°43'2 3.2
2017-Oct-13 07:00N 29°34' W 090°44'1 2.0
2017-Oct-13 06:31N 29°33' W 090°45'0 0.2
2017-Oct-13 06:00N 29°33' W 090°45'0 0.1
2017-Oct-13 05:31N 29°33' W 090°45'0 0.0
2017-Oct-13 05:00N 29°33' W 090°45'0 0.0
2017-Oct-13 04:30N 29°33' W 090°45'0 0.0
2017-Oct-13 04:01N 29°33' W 090°45'1 2.4
2017-Oct-13 03:30N 29°34' W 090°44'2 3.6
2017-Oct-13 03:00N 29°33' W 090°42'1 1.4
2017-Oct-13 02:30N 29°33' W 090°41'1 3.0
2017-Oct-13 02:00N 29°34' W 090°43'2 4.1
2017-Oct-13 01:30N 29°33' W 090°45'0 0.1
2017-Oct-13 01:01N 29°33' W 090°45'2 3.0
2017-Oct-13 00:30N 29°32' W 090°46'3 6.3
2017-Oct-13 00:00N 29°32' W 090°50'3 5.9
2017-Oct-12 23:26N 29°33' W 090°54'2 0.1
2017-Oct-12 04:34N 29°32' W 090°51'1 4.3
2017-Oct-12 04:19N 29°32' W 090°50'1 4.3
2017-Oct-12 04:00N 29°32' W 090°49'2 4.1
2017-Oct-12 03:30N 29°32' W 090°46'2 3.6
2017-Oct-12 03:01N 29°34' W 090°45'2 3.4
2017-Oct-12 02:30N 29°34' W 090°43'2 3.8
2017-Oct-12 02:00N 29°36' W 090°43'1 2.7
2017-Oct-12 01:31N 29°36' W 090°41'2 4.1
2017-Oct-12 01:01N 29°36' W 090°39'2 4.2
2017-Oct-12 00:30N 29°35' W 090°37'2 3.9
2017-Oct-12 00:00N 29°34' W 090°35'2 4.0
2017-Oct-11 23:31N 29°34' W 090°32'2 4.2
2017-Oct-11 23:00N 29°34' W 090°30'1 0.0
2017-Oct-10 13:23N 29°34' W 090°29'2 6.3
2017-Oct-10 13:00N 29°34' W 090°32'3 5.3
2017-Oct-10 12:30N 29°34' W 090°35'2 4.2
2017-Oct-10 12:00N 29°35' W 090°37'3 6.7
2017-Oct-10 11:31N 29°36' W 090°41'2 4.3
2017-Oct-10 11:00N 29°35' W 090°43'3 5.4
2017-Oct-10 10:31N 29°33' W 090°45'0 0.6
2017-Oct-10 10:00N 29°33' W 090°45'0 0.0
2017-Oct-10 09:31N 29°33' W 090°45'0 0.0
2017-Oct-10 09:00N 29°33' W 090°45'0 0.0
2017-Oct-10 08:30N 29°33' W 090°45'2 3.1
2017-Oct-10 08:00N 29°32' W 090°47'3 5.2
2017-Oct-10 07:30N 29°32' W 090°50'4 6.3
2017-Oct-10 06:56N 29°33' W 090°54'2 0.2
2017-Oct-09 18:29N 29°32' W 090°51'2 4.7
2017-Oct-09 18:00N 29°32' W 090°49'2 4.6
2017-Oct-09 17:31N 29°32' W 090°46'2 4.0
2017-Oct-09 17:01N 29°34' W 090°45'2 3.4
2017-Oct-09 16:30N 29°35' W 090°43'2 3.6
2017-Oct-09 16:01N 29°36' W 090°43'2 3.2
2017-Oct-09 15:30N 29°36' W 090°41'2 3.6
2017-Oct-09 15:00N 29°36' W 090°39'2 3.5
2017-Oct-09 14:30N 29°35' W 090°37'2 3.8
2017-Oct-09 14:01N 29°34' W 090°35'2 4.0
2017-Oct-09 13:30N 29°34' W 090°33'2 4.2
2017-Oct-09 13:00N 29°34' W 090°30'2 4.3
2017-Oct-09 12:29N 29°33' W 090°28'3 1.2
2017-Oct-09 09:59N 29°33' W 090°24'0 0.0
2017-Oct-09 09:19N 29°33' W 090°24'  
Track history (hours):
 
Tides and Currents Weather Stations Pressure Air Temp Water Temp Dewpoint Dewpoint Depression Visibility Wind Speed Wind Dir Waves Ship Positions

Citation

Owner: Turn Services, LLC, New Orleans, LA. More information available from US FCC via Universal Licensing System and Coast Guard Vessel Documentation Center.

Last reported at 2017-Oct-18 07:46 UTC. Time now 2017-Oct-18 11:19 UTC.
Position N 29°34' W 090°28'.

Length 37 m.

Type: Other ship. MMSI: 367390960.

Date/timePositionNaut miles runAvg speedWind from/ knotsBaromVisibWave heightAir tempDewpointWater temp
2017-Oct-18 07:46N 29°34' W 090°28'1 4.6
2017-Oct-18 07:30N 29°34' W 090°30'2 4.5
2017-Oct-18 07:00N 29°34' W 090°32'2 4.4
2017-Oct-18 06:29N 29°34' W 090°35'2 4.0
2017-Oct-18 06:00N 29°35' W 090°37'2 4.5
2017-Oct-18 05:31N 29°36' W 090°39'2 3.1
2017-Oct-18 05:00N 29°36' W 090°41'2 3.1
2017-Oct-18 04:30N 29°36' W 090°43'2 4.0
2017-Oct-18 04:00N 29°34' W 090°43'2 3.8
2017-Oct-18 03:31N 29°34' W 090°45'2 3.1
2017-Oct-18 03:01N 29°32' W 090°46'3 5.2
2017-Oct-18 02:30N 29°32' W 090°49'3 5.3
2017-Oct-18 01:55N 29°32' W 090°52'2 5.4
2017-Oct-18 01:30N 29°33' W 090°55'4 5.2
2017-Oct-18 00:46N 29°36' W 090°58'  
2017-Oct-15 10:24N 29°32' W 090°50'2 6.1
2017-Oct-15 10:00N 29°32' W 090°48'2 5.0
2017-Oct-15 09:30N 29°33' W 090°45'2 4.7
2017-Oct-15 09:00N 29°35' W 090°43'2 4.2
2017-Oct-15 08:30N 29°37' W 090°42'1 1.5
2017-Oct-15 08:00N 29°37' W 090°41'0 0.4
2017-Oct-15 07:30N 29°36' W 090°41'3 5.1
2017-Oct-15 07:01N 29°35' W 090°39'3 5.0
2017-Oct-15 06:30N 29°35' W 090°36'2 4.7
2017-Oct-15 06:00N 29°34' W 090°33'3 5.2
2017-Oct-15 05:31N 29°34' W 090°30'3 5.2
2017-Oct-15 05:00N 29°33' W 090°27'3 0.1
2017-Oct-13 12:54N 29°34' W 090°23'2 4.6
2017-Oct-13 12:26N 29°33' W 090°26'2 5.3
2017-Oct-13 12:00N 29°34' W 090°28'2 4.9
2017-Oct-13 11:30N 29°34' W 090°31'2 4.8
2017-Oct-13 10:59N 29°34' W 090°34'2 4.6
2017-Oct-13 10:30N 29°35' W 090°37'1 2.6
2017-Oct-13 10:00N 29°35' W 090°38'0 0.0
2017-Oct-13 09:30N 29°35' W 090°38'0 0.1
2017-Oct-13 09:00N 29°35' W 090°38'2 3.9
2017-Oct-13 08:30N 29°36' W 090°40'2 4.2
2017-Oct-13 08:00N 29°37' W 090°42'2 3.7
2017-Oct-13 07:30N 29°35' W 090°43'2 3.2
2017-Oct-13 07:00N 29°34' W 090°44'1 2.0
2017-Oct-13 06:31N 29°33' W 090°45'0 0.2
2017-Oct-13 06:00N 29°33' W 090°45'0 0.1
2017-Oct-13 05:31N 29°33' W 090°45'0 0.0
2017-Oct-13 05:00N 29°33' W 090°45'0 0.0
2017-Oct-13 04:30N 29°33' W 090°45'0 0.0
2017-Oct-13 04:01N 29°33' W 090°45'1 2.4
2017-Oct-13 03:30N 29°34' W 090°44'2 3.6
2017-Oct-13 03:00N 29°33' W 090°42'1 1.4
2017-Oct-13 02:30N 29°33' W 090°41'1 3.0
2017-Oct-13 02:00N 29°34' W 090°43'2 4.1
2017-Oct-13 01:30N 29°33' W 090°45'0 0.1
2017-Oct-13 01:01N 29°33' W 090°45'2 3.0
2017-Oct-13 00:30N 29°32' W 090°46'3 6.3
2017-Oct-13 00:00N 29°32' W 090°50'3 5.9
2017-Oct-12 23:26N 29°33' W 090°54'2 0.1
2017-Oct-12 04:34N 29°32' W 090°51'1 4.3
2017-Oct-12 04:19N 29°32' W 090°50'1 4.3
2017-Oct-12 04:00N 29°32' W 090°49'2 4.1
2017-Oct-12 03:30N 29°32' W 090°46'2 3.6
2017-Oct-12 03:01N 29°34' W 090°45'2 3.4
2017-Oct-12 02:30N 29°34' W 090°43'2 3.8
2017-Oct-12 02:00N 29°36' W 090°43'1 2.7
2017-Oct-12 01:31N 29°36' W 090°41'2 4.1
2017-Oct-12 01:01N 29°36' W 090°39'2 4.2
2017-Oct-12 00:30N 29°35' W 090°37'2 3.9
2017-Oct-12 00:00N 29°34' W 090°35'2 4.0
2017-Oct-11 23:31N 29°34' W 090°32'2 4.2
2017-Oct-11 23:00N 29°34' W 090°30'1 0.0
2017-Oct-10 13:23N 29°34' W 090°29'2 6.3
2017-Oct-10 13:00N 29°34' W 090°32'3 5.3
2017-Oct-10 12:30N 29°34' W 090°35'2 4.2
2017-Oct-10 12:00N 29°35' W 090°37'3 6.7
2017-Oct-10 11:31N 29°36' W 090°41'2 4.3
2017-Oct-10 11:00N 29°35' W 090°43'3 5.4
2017-Oct-10 10:31N 29°33' W 090°45'0 0.6
2017-Oct-10 10:00N 29°33' W 090°45'0 0.0
2017-Oct-10 09:31N 29°33' W 090°45'0 0.0
2017-Oct-10 09:00N 29°33' W 090°45'0 0.0
2017-Oct-10 08:30N 29°33' W 090°45'2 3.1
2017-Oct-10 08:00N 29°32' W 090°47'3 5.2
2017-Oct-10 07:30N 29°32' W 090°50'4 6.3
2017-Oct-10 06:56N 29°33' W 090°54'2 0.2
2017-Oct-09 18:29N 29°32' W 090°51'2 4.7
2017-Oct-09 18:00N 29°32' W 090°49'2 4.6
2017-Oct-09 17:31N 29°32' W 090°46'2 4.0
2017-Oct-09 17:01N 29°34' W 090°45'2 3.4
2017-Oct-09 16:30N 29°35' W 090°43'2 3.6
2017-Oct-09 16:01N 29°36' W 090°43'2 3.2
2017-Oct-09 15:30N 29°36' W 090°41'2 3.6
2017-Oct-09 15:00N 29°36' W 090°39'2 3.5
2017-Oct-09 14:30N 29°35' W 090°37'2 3.8
2017-Oct-09 14:01N 29°34' W 090°35'2 4.0
2017-Oct-09 13:30N 29°34' W 090°33'2 4.2
2017-Oct-09 13:00N 29°34' W 090°30'2 4.3
2017-Oct-09 12:29N 29°33' W 090°28'3 1.2
2017-Oct-09 09:59N 29°33' W 090°24'0 0.0
2017-Oct-09 09:19N 29°33' W 090°24'  

Dump ship's entire track history